createdAt,value
2022-10-05T00:00:09.240Z,98623.00
2022-10-05T00:00:20.450Z,98623.00
2022-10-05T00:00:30.451Z,98625.00
2022-10-05T00:00:40.439Z,98625.00
2022-10-05T00:00:50.039Z,98621.00
2022-10-05T00:00:59.098Z,98621.00
2022-10-05T00:01:10.439Z,98623.00
2022-10-05T00:01:19.021Z,98623.00
2022-10-05T00:01:30.007Z,98623.00
2022-10-05T00:01:40.473Z,98623.00
2022-10-05T00:01:50.466Z,98625.00
2022-10-05T00:01:59.019Z,98623.00
2022-10-05T00:02:09.978Z,98621.00
2022-10-05T00:02:18.979Z,98623.00
2022-10-05T00:02:30.450Z,98623.00
2022-10-05T00:02:40.450Z,98619.00
2022-10-05T00:02:49.852Z,98623.00
2022-10-05T00:03:00.460Z,98625.00
2022-10-05T00:03:08.990Z,98625.00
2022-10-05T00:03:20.431Z,98623.00
2022-10-05T00:03:30.445Z,98621.00
2022-10-05T00:03:40.429Z,98621.00
2022-10-05T00:03:50.475Z,98621.00
2022-10-05T00:04:00.461Z,98623.00
2022-10-05T00:04:10.011Z,98621.00
2022-10-05T00:04:18.971Z,98621.00
2022-10-05T00:04:30.468Z,98621.00
2022-10-05T00:04:40.442Z,98621.00
2022-10-05T00:04:50.450Z,98619.00
2022-10-05T00:04:59.030Z,98623.00
2022-10-05T00:05:09.074Z,98625.00
2022-10-05T00:05:19.056Z,98621.00
2022-10-05T00:05:29.030Z,98623.00
2022-10-05T00:05:40.410Z,98623.00
2022-10-05T00:05:48.961Z,98623.00
2022-10-05T00:05:58.981Z,98619.00
2022-10-05T00:06:09.941Z,98621.00
2022-10-05T00:06:20.421Z,98623.00
2022-10-05T00:06:30.433Z,98623.00
2022-10-05T00:06:40.411Z,98619.00
2022-10-05T00:06:50.404Z,98623.00
2022-10-05T00:07:00.441Z,98621.00
2022-10-05T00:07:10.401Z,98623.00
2022-10-05T00:07:18.975Z,98623.00
2022-10-05T00:07:28.962Z,98619.00
2022-10-05T00:07:38.951Z,98623.00
2022-10-05T00:07:50.412Z,98621.00
2022-10-05T00:08:00.382Z,98621.00
2022-10-05T00:08:08.968Z,98621.00
2022-10-05T00:08:20.400Z,98623.00
2022-10-05T00:08:30.391Z,98621.00
2022-10-05T00:08:40.391Z,98623.00
2022-10-05T00:08:50.404Z,98623.00
2022-10-05T00:09:00.394Z,98621.00
2022-10-05T00:09:10.391Z,98621.00
2022-10-05T00:09:20.385Z,98623.00
2022-10-05T00:09:30.375Z,98625.00
2022-10-05T00:09:40.383Z,98623.00
2022-10-05T00:09:48.944Z,98621.00
2022-10-05T00:09:58.934Z,98623.00
2022-10-05T00:10:08.942Z,98623.00
2022-10-05T00:10:18.949Z,98621.00
2022-10-05T00:10:29.531Z,98621.00
2022-10-05T00:10:38.921Z,98623.00
2022-10-05T00:10:49.851Z,98623.00
2022-10-05T00:10:58.956Z,98621.00
2022-10-05T00:11:10.371Z,98623.00
2022-10-05T00:11:19.802Z,98621.00
2022-10-05T00:11:28.955Z,98625.00
2022-10-05T00:11:40.386Z,98623.00
2022-10-05T00:11:49.873Z,98621.00
2022-10-05T00:11:58.916Z,98621.00
2022-10-05T00:12:08.924Z,98621.00
2022-10-05T00:12:20.374Z,98621.00
2022-10-05T00:12:30.367Z,98621.00
2022-10-05T00:12:40.376Z,98621.00
2022-10-05T00:12:48.932Z,98621.00
2022-10-05T00:12:59.892Z,98623.00
2022-10-05T00:13:08.922Z,98621.00
2022-10-05T00:13:18.935Z,98621.00
2022-10-05T00:13:30.381Z,98621.00
2022-10-05T00:13:40.345Z,98621.00
2022-10-05T00:13:48.910Z,98623.00
2022-10-05T00:13:59.004Z,98625.00
2022-10-05T00:14:09.782Z,98619.00
2022-10-05T00:14:20.353Z,98623.00
2022-10-05T00:14:28.902Z,98621.00
2022-10-05T00:14:38.913Z,98621.00
2022-10-05T00:14:48.915Z,98621.00
2022-10-05T00:14:58.914Z,98621.00
2022-10-05T00:15:08.902Z,98619.00
2022-10-05T00:15:18.896Z,98619.00
2022-10-05T00:15:30.355Z,98619.00
2022-10-05T00:15:38.895Z,98615.00
2022-10-05T00:15:50.351Z,98621.00
2022-10-05T00:15:58.894Z,98617.00
2022-10-05T00:16:08.933Z,98615.00
2022-10-05T00:16:20.408Z,98615.00
2022-10-05T00:16:28.943Z,98613.00
2022-10-05T00:16:40.377Z,98615.00
2022-10-05T00:16:49.491Z,98613.00
2022-10-05T00:16:58.948Z,98615.00
2022-10-05T00:17:08.900Z,98612.00
2022-10-05T00:17:19.737Z,98613.00
2022-10-05T00:17:28.889Z,98612.00
2022-10-05T00:17:40.343Z,98612.00
2022-10-05T00:17:49.482Z,98612.00
2022-10-05T00:17:59.803Z,98613.00
2022-10-05T00:18:10.333Z,98612.00
2022-10-05T00:18:20.313Z,98610.00
2022-10-05T00:18:29.624Z,98610.00
2022-10-05T00:18:40.326Z,98608.00
2022-10-05T00:18:50.337Z,98610.00
2022-10-05T00:18:58.905Z,98608.00
2022-10-05T00:19:10.353Z,98610.00
2022-10-05T00:19:19.494Z,98608.00
2022-10-05T00:19:28.846Z,98606.00
2022-10-05T00:19:40.315Z,98604.00
2022-10-05T00:19:50.317Z,98606.00
2022-10-05T00:20:00.313Z,98606.00
2022-10-05T00:20:10.314Z,98604.00
2022-10-05T00:20:20.303Z,98606.00
2022-10-05T00:20:28.854Z,98608.00
2022-10-05T00:20:40.325Z,98608.00
2022-10-05T00:20:50.306Z,98604.00
2022-10-05T00:20:58.862Z,98606.00
2022-10-05T00:21:10.315Z,98606.00
2022-10-05T00:21:18.847Z,98608.00
2022-10-05T00:21:30.304Z,98606.00
2022-10-05T00:21:40.295Z,98608.00
2022-10-05T00:21:49.504Z,98606.00
2022-10-05T00:21:58.824Z,98608.00
2022-10-05T00:22:10.285Z,98608.00
2022-10-05T00:22:18.902Z,98608.00
2022-10-05T00:22:30.286Z,98608.00
2022-10-05T00:22:40.294Z,98608.00
2022-10-05T00:22:48.834Z,98608.00
2022-10-05T00:23:00.313Z,98608.00
2022-10-05T00:23:08.834Z,98612.00
2022-10-05T00:23:18.905Z,98610.00
2022-10-05T00:23:30.084Z,98612.00
2022-10-05T00:23:38.845Z,98612.00
2022-10-05T00:23:48.909Z,98613.00
2022-10-05T00:23:59.055Z,98613.00
2022-10-05T00:24:08.977Z,98615.00
2022-10-05T00:24:18.915Z,98613.00
2022-10-05T00:24:28.944Z,98615.00
2022-10-05T00:24:38.837Z,98615.00
2022-10-05T00:24:49.014Z,98619.00
2022-10-05T00:24:58.946Z,98617.00
2022-10-05T00:25:08.816Z,98615.00
2022-10-05T00:25:20.296Z,98619.00
2022-10-05T00:25:30.266Z,98617.00
2022-10-05T00:25:39.780Z,98615.00
2022-10-05T00:25:50.286Z,98615.00
2022-10-05T00:26:00.256Z,98617.00
2022-10-05T00:26:08.816Z,98619.00
2022-10-05T00:26:18.835Z,98619.00
2022-10-05T00:26:28.854Z,98617.00
2022-10-05T00:26:38.828Z,98615.00
2022-10-05T00:26:54.171Z,98619.00
2022-10-05T00:27:01.347Z,98615.00
2022-10-05T00:27:11.326Z,98619.00
2022-10-05T00:27:20.065Z,98619.00
2022-10-05T00:27:31.306Z,98619.00
2022-10-05T00:27:41.315Z,98621.00
2022-10-05T00:27:51.326Z,98619.00
2022-10-05T00:28:01.366Z,98619.00
2022-10-05T00:28:10.191Z,98615.00
2022-10-05T00:28:21.366Z,98615.00
2022-10-05T00:28:31.332Z,98615.00
2022-10-05T00:28:39.856Z,98617.00
2022-10-05T00:28:51.329Z,98615.00
2022-10-05T00:29:01.319Z,98617.00
2022-10-05T00:29:11.296Z,98613.00
2022-10-05T00:29:21.196Z,98615.00
2022-10-05T00:29:31.289Z,98615.00
2022-10-05T00:29:40.816Z,98613.00
2022-10-05T00:29:50.836Z,98615.00
2022-10-05T00:30:01.324Z,98615.00
2022-10-05T00:30:09.825Z,98617.00
2022-10-05T00:30:20.182Z,98617.00
2022-10-05T00:30:31.277Z,98615.00
2022-10-05T00:30:40.766Z,98613.00
2022-10-05T00:30:49.861Z,98617.00
2022-10-05T00:30:59.867Z,98615.00
2022-10-05T00:31:11.432Z,98613.00
2022-10-05T00:31:21.387Z,98613.00
2022-10-05T00:31:31.333Z,98615.00
2022-10-05T00:31:39.871Z,98613.00
2022-10-05T00:31:51.410Z,98615.00
2022-10-05T00:32:01.355Z,98613.00
2022-10-05T00:32:09.961Z,98617.00
2022-10-05T00:32:19.847Z,98613.00
2022-10-05T00:32:31.277Z,98615.00
2022-10-05T00:32:39.838Z,98615.00
2022-10-05T00:32:53.015Z,98615.00
2022-10-05T00:33:00.786Z,98617.00
2022-10-05T00:33:12.237Z,98619.00
2022-10-05T00:33:22.228Z,98621.00
2022-10-05T00:33:32.220Z,98621.00
2022-10-05T00:33:40.767Z,98619.00
2022-10-05T00:33:50.776Z,98619.00
2022-10-05T00:34:00.787Z,98619.00
2022-10-05T00:34:10.767Z,98621.00
2022-10-05T00:34:22.231Z,98623.00
2022-10-05T00:34:32.219Z,98619.00
2022-10-05T00:34:42.210Z,98623.00
2022-10-05T00:34:50.767Z,98623.00
2022-10-05T00:35:00.770Z,98623.00
2022-10-05T00:35:12.198Z,98623.00
2022-10-05T00:35:20.759Z,98625.00
2022-10-05T00:35:30.779Z,98623.00
2022-10-05T00:35:40.768Z,98621.00
2022-10-05T00:35:50.771Z,98621.00
2022-10-05T00:36:01.389Z,98623.00
2022-10-05T00:36:12.199Z,98625.00
2022-10-05T00:36:20.939Z,98625.00
2022-10-05T00:36:32.180Z,98625.00
2022-10-05T00:36:40.762Z,98627.00
2022-10-05T00:36:50.761Z,98625.00
2022-10-05T00:37:02.218Z,98623.00
2022-10-05T00:37:10.737Z,98627.00
2022-10-05T00:37:22.208Z,98625.00
2022-10-05T00:37:32.191Z,98623.00
2022-10-05T00:37:40.739Z,98623.00
2022-10-05T00:37:52.199Z,98627.00
2022-10-05T00:38:02.189Z,98625.00
2022-10-05T00:38:10.739Z,98625.00
2022-10-05T00:38:22.199Z,98623.00
2022-10-05T00:38:32.179Z,98627.00
2022-10-05T00:38:40.741Z,98627.00
2022-10-05T00:38:50.751Z,98625.00
2022-10-05T00:39:00.762Z,98627.00
2022-10-05T00:39:10.740Z,98627.00
2022-10-05T00:39:22.198Z,98627.00
2022-10-05T00:39:30.727Z,98627.00
2022-10-05T00:39:42.181Z,98629.00
2022-10-05T00:39:52.169Z,98629.00
2022-10-05T00:40:00.759Z,98629.00
2022-10-05T00:40:10.731Z,98629.00
2022-10-05T00:40:22.194Z,98631.00
2022-10-05T00:40:31.669Z,98631.00
2022-10-05T00:40:42.179Z,98631.00
2022-10-05T00:40:50.709Z,98631.00
2022-10-05T00:41:00.738Z,98631.00
2022-10-05T00:41:10.720Z,98631.00
2022-10-05T00:41:20.751Z,98633.00
2022-10-05T00:41:30.720Z,98633.00
2022-10-05T00:41:40.728Z,98631.00
2022-10-05T00:41:52.189Z,98633.00
2022-10-05T00:42:00.719Z,98635.00
2022-10-05T00:42:12.159Z,98635.00
2022-10-05T00:42:20.700Z,98635.00
2022-10-05T00:42:32.179Z,98633.00
2022-10-05T00:42:42.160Z,98635.00
2022-10-05T00:42:50.710Z,98631.00
2022-10-05T00:43:00.710Z,98635.00
2022-10-05T00:43:12.151Z,98633.00
2022-10-05T00:43:20.699Z,98633.00
2022-10-05T00:43:30.697Z,98635.00
2022-10-05T00:43:40.719Z,98635.00
2022-10-05T00:43:52.160Z,98635.00
2022-10-05T00:44:02.141Z,98633.00
2022-10-05T00:44:10.701Z,98633.00
2022-10-05T00:44:20.710Z,98633.00
2022-10-05T00:44:32.161Z,98633.00
2022-10-05T00:44:42.142Z,98629.00
2022-10-05T00:44:52.140Z,98633.00
2022-10-05T00:45:02.144Z,98635.00
2022-10-05T00:45:12.120Z,98635.00
2022-10-05T00:45:21.660Z,98631.00
2022-10-05T00:45:32.183Z,98631.00
2022-10-05T00:45:42.176Z,98631.00
2022-10-05T00:45:50.720Z,98633.00
2022-10-05T00:46:00.745Z,98631.00
2022-10-05T00:46:12.185Z,98631.00
2022-10-05T00:46:22.299Z,98629.00
2022-10-05T00:46:30.661Z,98629.00
2022-10-05T00:46:40.690Z,98627.00
2022-10-05T00:46:52.135Z,98627.00
2022-10-05T00:47:00.679Z,98631.00
2022-10-05T00:47:12.131Z,98629.00
2022-10-05T00:47:21.464Z,98629.00
2022-10-05T00:47:30.667Z,98625.00
2022-10-05T00:47:42.120Z,98625.00
2022-10-05T00:47:52.111Z,98623.00
2022-10-05T00:48:00.670Z,98621.00
2022-10-05T00:48:12.121Z,98625.00
2022-10-05T00:48:20.669Z,98625.00
2022-10-05T00:48:32.102Z,98621.00
2022-10-05T00:48:42.106Z,98623.00
2022-10-05T00:48:51.122Z,98621.00
2022-10-05T00:49:02.092Z,98621.00
2022-10-05T00:49:11.001Z,98619.00
2022-10-05T00:49:21.531Z,98621.00
2022-10-05T00:49:32.097Z,98619.00
2022-10-05T00:49:42.094Z,98623.00
2022-10-05T00:49:50.992Z,98623.00
2022-10-05T00:50:00.641Z,98621.00
2022-10-05T00:50:10.907Z,98621.00
2022-10-05T00:50:21.134Z,98621.00
2022-10-05T00:50:31.172Z,98619.00
2022-10-05T00:50:40.630Z,98619.00
2022-10-05T00:50:51.240Z,98619.00
2022-10-05T00:51:01.195Z,98621.00
2022-10-05T00:51:10.911Z,98621.00
2022-10-05T00:51:21.243Z,98623.00
2022-10-05T00:51:31.280Z,98623.00
2022-10-05T00:51:40.702Z,98623.00
2022-10-05T00:51:50.843Z,98625.00
2022-10-05T00:52:01.282Z,98625.00
2022-10-05T00:52:11.512Z,98627.00
2022-10-05T00:52:22.169Z,98625.00
2022-10-05T00:52:30.642Z,98625.00
2022-10-05T00:52:40.642Z,98625.00
2022-10-05T00:52:51.152Z,98625.00
2022-10-05T00:53:00.615Z,98625.00
2022-10-05T00:53:10.923Z,98627.00
2022-10-05T00:53:22.062Z,98625.00
2022-10-05T00:53:32.091Z,98627.00
2022-10-05T00:53:41.573Z,98631.00
2022-10-05T00:53:52.052Z,98627.00
2022-10-05T00:54:00.654Z,98631.00
2022-10-05T00:54:13.618Z,98629.00
2022-10-05T00:54:22.070Z,98627.00
2022-10-05T00:54:30.603Z,98631.00
2022-10-05T00:54:40.625Z,98631.00
2022-10-05T00:54:50.652Z,98631.00
2022-10-05T00:55:02.058Z,98625.00
2022-10-05T00:55:10.622Z,98627.00
2022-10-05T00:55:20.656Z,98633.00
2022-10-05T00:55:32.057Z,98627.00
2022-10-05T00:55:40.733Z,98627.00
2022-10-05T00:55:50.663Z,98627.00
2022-10-05T00:56:00.604Z,98629.00
2022-10-05T00:56:10.611Z,98627.00
2022-10-05T00:56:22.075Z,98627.00
2022-10-05T00:56:32.063Z,98627.00
2022-10-05T00:56:41.565Z,98627.00
2022-10-05T00:56:52.053Z,98629.00
2022-10-05T00:57:00.624Z,98631.00
2022-10-05T00:57:11.544Z,98629.00
2022-10-05T00:57:20.603Z,98631.00
2022-10-05T00:57:32.054Z,98629.00
2022-10-05T00:57:41.545Z,98629.00
2022-10-05T00:57:50.613Z,98629.00
2022-10-05T00:58:02.053Z,98629.00
2022-10-05T00:58:11.534Z,98629.00
2022-10-05T00:58:22.044Z,98629.00
2022-10-05T00:58:32.055Z,98625.00
2022-10-05T00:58:42.044Z,98629.00
2022-10-05T00:58:50.575Z,98629.00
2022-10-05T00:59:02.049Z,98631.00
2022-10-05T00:59:11.535Z,98631.00
2022-10-05T00:59:20.595Z,98631.00
2022-10-05T00:59:30.747Z,98631.00
2022-10-05T00:59:40.652Z,98633.00
2022-10-05T00:59:50.687Z,98633.00
2022-10-05T01:00:02.026Z,98635.00
2022-10-05T01:00:10.565Z,98635.00
2022-10-05T01:00:20.576Z,98631.00
2022-10-05T01:00:32.047Z,98631.00
2022-10-05T01:00:42.029Z,98629.00
2022-10-05T01:00:50.587Z,98631.00
2022-10-05T01:01:02.092Z,98629.00
2022-10-05T01:01:10.732Z,98637.00
2022-10-05T01:01:20.601Z,98635.00
2022-10-05T01:01:31.458Z,98635.00
2022-10-05T01:01:42.005Z,98635.00
2022-10-05T01:01:50.629Z,98635.00
2022-10-05T01:02:00.645Z,98635.00
2022-10-05T01:02:10.813Z,98637.00
2022-10-05T01:02:20.779Z,98635.00
2022-10-05T01:02:36.744Z,98637.00
2022-10-05T01:02:41.916Z,98635.00
2022-10-05T01:02:51.633Z,98633.00
2022-10-05T01:03:03.055Z,98631.00
2022-10-05T01:03:12.536Z,98635.00
2022-10-05T01:03:21.735Z,98633.00
2022-10-05T01:03:33.025Z,98637.00
2022-10-05T01:03:43.034Z,98635.00
2022-10-05T01:03:51.843Z,98631.00
2022-10-05T01:04:01.882Z,98633.00
2022-10-05T01:04:11.813Z,98635.00
2022-10-05T01:04:21.836Z,98635.00
2022-10-05T01:04:33.020Z,98635.00
2022-10-05T01:04:41.916Z,98633.00
2022-10-05T01:04:51.845Z,98637.00
2022-10-05T01:05:01.875Z,98635.00
2022-10-05T01:05:11.826Z,98635.00
2022-10-05T01:05:21.946Z,98633.00
2022-10-05T01:05:31.575Z,98635.00
2022-10-05T01:05:41.576Z,98633.00
2022-10-05T01:05:51.957Z,98635.00
2022-10-05T01:06:01.885Z,98633.00
2022-10-05T01:06:13.005Z,98633.00
2022-10-05T01:06:21.956Z,98633.00
2022-10-05T01:06:32.436Z,98633.00
2022-10-05T01:06:43.196Z,98633.00
2022-10-05T01:06:51.566Z,98631.00
2022-10-05T01:07:01.566Z,98631.00
2022-10-05T01:07:13.015Z,98631.00
2022-10-05T01:07:21.956Z,98633.00
2022-10-05T01:07:32.347Z,98633.00
2022-10-05T01:07:41.559Z,98631.00
2022-10-05T01:07:53.015Z,98631.00
2022-10-05T01:08:02.546Z,98631.00
2022-10-05T01:08:11.557Z,98629.00
2022-10-05T01:08:23.020Z,98629.00
2022-10-05T01:08:32.506Z,98633.00
2022-10-05T01:08:41.556Z,98631.00
2022-10-05T01:08:52.999Z,98631.00
2022-10-05T01:09:01.621Z,98633.00
2022-10-05T01:09:11.545Z,98631.00
2022-10-05T01:09:21.564Z,98633.00
2022-10-05T01:09:32.406Z,98631.00
2022-10-05T01:09:42.987Z,98633.00
2022-10-05T01:09:52.996Z,98633.00
2022-10-05T01:10:01.538Z,98633.00
2022-10-05T01:10:13.007Z,98633.00
2022-10-05T01:10:22.987Z,98633.00
2022-10-05T01:10:31.546Z,98627.00
2022-10-05T01:10:41.552Z,98631.00
2022-10-05T01:10:52.998Z,98629.00
2022-10-05T01:11:01.556Z,98629.00
2022-10-05T01:11:11.540Z,98633.00
2022-10-05T01:11:23.008Z,98631.00
2022-10-05T01:11:32.987Z,98633.00
2022-10-05T01:11:41.541Z,98633.00
2022-10-05T01:11:52.997Z,98633.00
2022-10-05T01:12:02.968Z,98637.00
2022-10-05T01:12:11.795Z,98637.00
2022-10-05T01:12:22.957Z,98635.00
2022-10-05T01:12:32.977Z,98635.00
2022-10-05T01:12:42.968Z,98635.00
2022-10-05T01:12:51.798Z,98637.00
2022-10-05T01:13:01.646Z,98637.00
2022-10-05T01:13:12.308Z,98633.00
2022-10-05T01:13:22.973Z,98635.00
2022-10-05T01:13:32.990Z,98635.00
2022-10-05T01:13:42.967Z,98637.00
2022-10-05T01:13:52.981Z,98639.00
2022-10-05T01:14:03.002Z,98639.00
2022-10-05T01:14:12.967Z,98641.00
2022-10-05T01:14:22.986Z,98641.00
2022-10-05T01:14:32.968Z,98639.00
2022-10-05T01:14:41.505Z,98641.00
2022-10-05T01:14:52.965Z,98639.00
2022-10-05T01:15:02.955Z,98637.00
2022-10-05T01:15:11.511Z,98637.00
2022-10-05T01:15:21.517Z,98637.00
2022-10-05T01:15:32.948Z,98637.00
2022-10-05T01:15:42.947Z,98637.00
2022-10-05T01:15:52.958Z,98639.00
2022-10-05T01:16:02.979Z,98637.00
2022-10-05T01:16:12.498Z,98637.00
2022-10-05T01:16:23.011Z,98637.00
2022-10-05T01:16:32.988Z,98637.00
2022-10-05T01:16:43.093Z,98637.00
2022-10-05T01:16:51.660Z,98639.00
2022-10-05T01:17:03.004Z,98639.00
2022-10-05T01:17:11.506Z,98635.00
2022-10-05T01:17:22.948Z,98635.00
2022-10-05T01:17:32.985Z,98637.00
2022-10-05T01:17:42.941Z,98637.00
2022-10-05T01:17:52.937Z,98635.00
2022-10-05T01:18:02.928Z,98633.00
2022-10-05T01:18:12.459Z,98635.00
2022-10-05T01:18:21.488Z,98631.00
2022-10-05T01:18:31.498Z,98635.00
2022-10-05T01:18:42.938Z,98633.00
2022-10-05T01:18:52.930Z,98633.00
2022-10-05T01:19:01.490Z,98633.00
2022-10-05T01:19:12.970Z,98631.00
2022-10-05T01:19:22.930Z,98631.00
2022-10-05T01:19:32.929Z,98629.00
2022-10-05T01:19:41.477Z,98631.00
2022-10-05T01:19:52.955Z,98629.00
2022-10-05T01:20:02.929Z,98633.00
2022-10-05T01:20:12.925Z,98629.00
2022-10-05T01:20:22.940Z,98631.00
2022-10-05T01:20:31.470Z,98629.00
2022-10-05T01:20:42.930Z,98631.00
2022-10-05T01:20:51.469Z,98633.00
2022-10-05T01:21:02.928Z,98631.00
2022-10-05T01:21:11.580Z,98629.00
2022-10-05T01:21:21.479Z,98631.00
2022-10-05T01:21:31.470Z,98629.00
2022-10-05T01:21:42.919Z,98631.00
2022-10-05T01:21:52.920Z,98631.00
2022-10-05T01:22:01.459Z,98631.00
2022-10-05T01:22:11.503Z,98633.00
2022-10-05T01:22:22.919Z,98633.00
2022-10-05T01:22:32.920Z,98633.00
2022-10-05T01:22:41.460Z,98631.00
2022-10-05T01:22:52.920Z,98633.00
2022-10-05T01:23:02.911Z,98631.00
2022-10-05T01:23:12.908Z,98633.00
2022-10-05T01:23:22.906Z,98627.00
2022-10-05T01:23:32.899Z,98633.00
2022-10-05T01:23:42.898Z,98629.00
2022-10-05T01:23:52.907Z,98629.00
2022-10-05T01:24:02.899Z,98631.00
2022-10-05T01:24:11.459Z,98629.00
2022-10-05T01:24:21.452Z,98627.00
2022-10-05T01:24:32.247Z,98629.00
2022-10-05T01:24:42.918Z,98631.00
2022-10-05T01:24:51.442Z,98629.00
2022-10-05T01:25:02.199Z,98629.00
2022-10-05T01:25:11.448Z,98627.00
2022-10-05T01:25:22.901Z,98629.00
2022-10-05T01:25:32.890Z,98627.00
2022-10-05T01:25:41.437Z,98629.00
2022-10-05T01:25:52.911Z,98627.00
2022-10-05T01:26:02.883Z,98627.00
2022-10-05T01:26:11.430Z,98627.00
2022-10-05T01:26:21.461Z,98627.00
2022-10-05T01:26:31.447Z,98627.00
2022-10-05T01:26:42.291Z,98629.00
2022-10-05T01:26:52.900Z,98627.00
2022-10-05T01:27:02.870Z,98625.00
2022-10-05T01:27:12.892Z,98625.00
2022-10-05T01:27:21.425Z,98625.00
2022-10-05T01:27:32.881Z,98623.00
2022-10-05T01:27:42.871Z,98623.00
2022-10-05T01:27:51.422Z,98623.00
2022-10-05T01:28:01.495Z,98621.00
2022-10-05T01:28:12.923Z,98625.00
2022-10-05T01:28:21.457Z,98623.00
2022-10-05T01:28:32.937Z,98619.00
2022-10-05T01:28:41.410Z,98621.00
2022-10-05T01:28:52.861Z,98621.00
2022-10-05T01:29:02.881Z,98621.00
2022-10-05T01:29:12.931Z,98621.00
2022-10-05T01:29:21.883Z,98619.00
2022-10-05T01:29:32.852Z,98621.00
2022-10-05T01:29:42.888Z,98617.00
2022-10-05T01:29:51.433Z,98619.00
2022-10-05T01:30:02.054Z,98619.00
2022-10-05T01:30:11.407Z,98617.00
2022-10-05T01:30:22.866Z,98617.00
2022-10-05T01:30:31.402Z,98617.00
2022-10-05T01:30:42.101Z,98615.00
2022-10-05T01:30:52.124Z,98617.00
2022-10-05T01:31:02.171Z,98617.00
2022-10-05T01:31:11.512Z,98617.00
2022-10-05T01:31:21.450Z,98619.00
2022-10-05T01:31:32.206Z,98617.00
2022-10-05T01:31:42.946Z,98621.00
2022-10-05T01:31:51.727Z,98617.00
2022-10-05T01:32:02.193Z,98619.00
2022-10-05T01:32:12.831Z,98615.00
2022-10-05T01:32:22.132Z,98617.00
2022-10-05T01:32:32.171Z,98619.00
2022-10-05T01:32:41.948Z,98621.00
2022-10-05T01:32:52.252Z,98619.00
2022-10-05T01:33:02.290Z,98619.00
2022-10-05T01:33:12.828Z,98613.00
2022-10-05T01:33:22.169Z,98621.00
2022-10-05T01:33:31.382Z,98619.00
2022-10-05T01:33:42.225Z,98621.00
2022-10-05T01:33:52.823Z,98617.00
2022-10-05T01:34:01.380Z,98617.00
2022-10-05T01:34:12.833Z,98619.00
2022-10-05T01:34:21.372Z,98617.00
2022-10-05T01:34:32.842Z,98615.00
2022-10-05T01:34:42.293Z,98617.00
2022-10-05T01:34:51.372Z,98615.00
2022-10-05T01:35:02.824Z,98615.00
2022-10-05T01:35:11.453Z,98617.00
2022-10-05T01:35:21.392Z,98615.00
2022-10-05T01:35:31.362Z,98615.00
2022-10-05T01:35:42.822Z,98617.00
2022-10-05T01:35:51.373Z,98615.00
2022-10-05T01:36:02.162Z,98615.00
2022-10-05T01:36:11.394Z,98617.00
2022-10-05T01:36:21.394Z,98617.00
2022-10-05T01:36:32.832Z,98617.00
2022-10-05T01:36:43.005Z,98617.00
2022-10-05T01:36:52.323Z,98615.00
2022-10-05T01:37:01.362Z,98613.00
2022-10-05T01:37:12.823Z,98615.00
2022-10-05T01:37:22.813Z,98615.00
2022-10-05T01:37:31.362Z,98615.00
2022-10-05T01:37:42.803Z,98613.00
2022-10-05T01:37:51.373Z,98615.00
2022-10-05T01:38:02.809Z,98613.00
2022-10-05T01:38:11.352Z,98613.00
2022-10-05T01:38:21.343Z,98612.00
2022-10-05T01:38:31.513Z,98612.00
2022-10-05T01:38:41.335Z,98613.00
2022-10-05T01:38:51.353Z,98612.00
2022-10-05T01:39:02.134Z,98612.00
2022-10-05T01:39:12.795Z,98612.00
2022-10-05T01:39:22.785Z,98610.00
2022-10-05T01:39:31.341Z,98610.00
2022-10-05T01:39:42.789Z,98610.00
2022-10-05T01:39:51.323Z,98613.00
2022-10-05T01:40:01.334Z,98612.00
2022-10-05T01:40:12.805Z,98612.00
2022-10-05T01:40:21.574Z,98610.00
2022-10-05T01:40:32.774Z,98612.00
2022-10-05T01:40:42.794Z,98608.00
2022-10-05T01:40:51.315Z,98606.00
2022-10-05T01:41:01.345Z,98608.00
2022-10-05T01:41:11.384Z,98606.00
2022-10-05T01:41:22.794Z,98604.00
2022-10-05T01:41:32.155Z,98604.00
2022-10-05T01:41:42.774Z,98604.00
2022-10-05T01:41:51.307Z,98604.00
2022-10-05T01:42:02.766Z,98604.00
2022-10-05T01:42:11.655Z,98604.00
2022-10-05T01:42:22.744Z,98606.00
2022-10-05T01:42:32.767Z,98604.00
2022-10-05T01:42:41.302Z,98608.00
2022-10-05T01:42:51.698Z,98608.00
2022-10-05T01:43:01.294Z,98604.00
2022-10-05T01:43:12.786Z,98606.00
2022-10-05T01:43:21.326Z,98604.00
2022-10-05T01:43:31.321Z,98606.00
2022-10-05T01:43:42.765Z,98606.00
2022-10-05T01:43:51.315Z,98608.00
2022-10-05T01:44:01.735Z,98606.00
2022-10-05T01:44:11.285Z,98608.00
2022-10-05T01:44:21.305Z,98608.00
2022-10-05T01:44:32.762Z,98606.00
2022-10-05T01:44:41.284Z,98606.00
2022-10-05T01:44:52.757Z,98604.00
2022-10-05T01:45:02.766Z,98600.00
2022-10-05T01:45:12.758Z,98602.00
2022-10-05T01:45:21.323Z,98604.00
2022-10-05T01:45:32.822Z,98606.00
2022-10-05T01:45:42.895Z,98608.00
2022-10-05T01:45:52.806Z,98608.00
2022-10-05T01:46:02.895Z,98606.00
2022-10-05T01:46:11.364Z,98606.00
2022-10-05T01:46:21.332Z,98604.00
2022-10-05T01:46:32.755Z,98608.00
2022-10-05T01:46:41.318Z,98606.00
2022-10-05T01:46:52.770Z,98610.00
2022-10-05T01:47:02.255Z,98610.00
2022-10-05T01:47:11.276Z,98612.00
2022-10-05T01:47:22.747Z,98608.00
2022-10-05T01:47:33.486Z,98612.00
2022-10-05T01:47:42.236Z,98612.00
2022-10-05T01:47:51.264Z,98613.00
2022-10-05T01:48:01.279Z,98612.00
2022-10-05T01:48:12.715Z,98613.00
2022-10-05T01:48:22.265Z,98612.00
2022-10-05T01:48:31.285Z,98612.00
2022-10-05T01:48:42.736Z,98613.00
2022-10-05T01:48:52.717Z,98610.00
2022-10-05T01:49:01.267Z,98612.00
2022-10-05T01:49:11.296Z,98610.00
2022-10-05T01:49:22.696Z,98613.00
2022-10-05T01:49:31.257Z,98613.00
2022-10-05T01:49:42.696Z,98613.00
2022-10-05T01:49:51.268Z,98613.00
2022-10-05T01:50:02.731Z,98615.00
2022-10-05T01:50:12.709Z,98615.00
2022-10-05T01:50:22.706Z,98615.00
2022-10-05T01:50:32.056Z,98615.00
2022-10-05T01:50:42.716Z,98613.00
2022-10-05T01:50:51.249Z,98615.00
2022-10-05T01:51:02.737Z,98615.00
2022-10-05T01:51:12.717Z,98617.00
2022-10-05T01:51:21.267Z,98617.00
2022-10-05T01:51:32.706Z,98619.00
2022-10-05T01:51:41.236Z,98617.00
2022-10-05T01:51:52.706Z,98617.00
2022-10-05T01:52:02.697Z,98615.00
2022-10-05T01:52:11.248Z,98617.00
2022-10-05T01:52:22.701Z,98619.00
2022-10-05T01:52:32.706Z,98621.00
2022-10-05T01:52:42.687Z,98621.00
2022-10-05T01:52:51.236Z,98621.00
2022-10-05T01:53:01.268Z,98621.00
2022-10-05T01:53:12.688Z,98621.00
2022-10-05T01:53:21.246Z,98623.00
2022-10-05T01:53:31.228Z,98623.00
2022-10-05T01:53:42.205Z,98623.00
2022-10-05T01:53:52.689Z,98625.00
2022-10-05T01:54:01.237Z,98625.00
2022-10-05T01:54:11.258Z,98623.00
2022-10-05T01:54:21.252Z,98623.00
2022-10-05T01:54:31.239Z,98625.00
2022-10-05T01:54:42.689Z,98625.00
2022-10-05T01:54:51.220Z,98627.00
2022-10-05T01:55:02.688Z,98621.00
2022-10-05T01:55:11.228Z,98621.00
2022-10-05T01:55:22.200Z,98623.00
2022-10-05T01:55:31.228Z,98629.00
2022-10-05T01:55:42.679Z,98627.00
2022-10-05T01:55:51.227Z,98627.00
2022-10-05T01:56:01.247Z,98623.00
2022-10-05T01:56:12.678Z,98625.00
2022-10-05T01:56:22.679Z,98625.00
2022-10-05T01:56:32.658Z,98623.00
2022-10-05T01:56:41.226Z,98623.00
2022-10-05T01:56:52.671Z,98627.00
2022-10-05T01:57:02.658Z,98625.00
2022-10-05T01:57:11.244Z,98625.00
2022-10-05T01:57:21.391Z,98625.00
2022-10-05T01:57:31.308Z,98623.00